createdAt,value
2023-03-22T00:01:19.566Z,98572.41
2023-03-22T00:03:47.752Z,98569.38
2023-03-22T00:06:16.471Z,98566.41
2023-03-22T00:08:43.738Z,98566.41
2023-03-22T00:11:11.735Z,98558.31
2023-03-22T00:13:38.894Z,98561.22
2023-03-22T00:16:06.195Z,98556.06
2023-03-22T00:18:33.053Z,98554.09
2023-03-22T00:21:00.620Z,98552.47
2023-03-22T00:23:28.853Z,98551.06
2023-03-22T00:25:56.175Z,98544.81
2023-03-22T00:28:23.285Z,98540.44
2023-03-22T00:30:59.215Z,98536.19
2023-03-22T00:33:26.938Z,98535.94
2023-03-22T00:35:57.268Z,98535.59
2023-03-22T00:38:35.944Z,98532.06
2023-03-22T00:41:17.279Z,98528.53
2023-03-22T00:43:44.568Z,98526.06
2023-03-22T00:46:12.670Z,98533.38
2023-03-22T00:48:39.981Z,98528.78
2023-03-22T00:51:07.975Z,98529.09
2023-03-22T00:53:36.644Z,98529.09
2023-03-22T00:56:05.561Z,98520.38
2023-03-22T00:58:32.825Z,98521.47
2023-03-22T01:00:59.641Z,98521.97
2023-03-22T01:03:26.537Z,98522.78
2023-03-22T01:05:56.801Z,98521.66
2023-03-22T01:08:24.553Z,98520.53
2023-03-22T01:10:51.751Z,98525.38
2023-03-22T01:13:18.681Z,98520.22
2023-03-22T01:15:47.787Z,98518.56
2023-03-22T01:18:14.739Z,98518.31
2023-03-22T01:20:41.897Z,98511.25
2023-03-22T01:23:09.050Z,98509.63
2023-03-22T01:25:35.936Z,98504.44
2023-03-22T01:28:02.907Z,98509.31
2023-03-22T01:30:30.285Z,98501.75
2023-03-22T01:32:57.324Z,98503.62
2023-03-22T01:35:24.350Z,98496.22
2023-03-22T01:37:51.579Z,98497.81
2023-03-22T01:40:18.455Z,98495.09
2023-03-22T01:42:45.416Z,98489.91
2023-03-22T01:45:15.515Z,98493.72
2023-03-22T01:48:24.332Z,98495.03
2023-03-22T01:51:18.922Z,98486.59
2023-03-22T01:53:55.627Z,98488.72
2023-03-22T01:56:25.869Z,98492.81
2023-03-22T01:58:55.078Z,98483.63
2023-03-22T02:01:23.384Z,98485.25
2023-03-22T02:04:16.124Z,98485.81
2023-03-22T02:06:43.560Z,98479.91
2023-03-22T02:09:13.539Z,98478.75
2023-03-22T02:11:43.142Z,98488.28
2023-03-22T02:14:15.861Z,98487.16
2023-03-22T02:16:57.253Z,98482.81
2023-03-22T02:20:11.168Z,98485.75
2023-03-22T02:22:50.162Z,98488.22
2023-03-22T02:25:39.475Z,98492.75
2023-03-22T02:28:22.023Z,98493.34
2023-03-22T02:31:08.004Z,98492.97
2023-03-22T02:34:19.601Z,98495.34
2023-03-22T02:37:07.850Z,98487.97
2023-03-22T02:40:05.658Z,98488.53
2023-03-22T02:42:41.480Z,98489.09
2023-03-22T02:45:24.896Z,98482.88
2023-03-22T02:47:59.565Z,98491.00
2023-03-22T02:50:41.656Z,98489.34
2023-03-22T02:53:24.615Z,98498.31
2023-03-22T02:56:19.411Z,98493.72
2023-03-22T02:58:56.569Z,98490.75
2023-03-22T03:01:23.294Z,98494.22
2023-03-22T03:03:52.712Z,98494.22
2023-03-22T03:06:22.823Z,98491.75
2023-03-22T03:08:53.493Z,98494.72
2023-03-22T03:11:21.506Z,98502.34
2023-03-22T03:13:49.409Z,98499.63
2023-03-22T03:16:20.777Z,98491.25
2023-03-22T03:18:50.767Z,98498.81
2023-03-22T03:21:20.714Z,98495.53
2023-03-22T03:24:25.228Z,98497.19
2023-03-22T03:27:06.656Z,98498.56
2023-03-22T03:29:42.170Z,98495.03
2023-03-22T03:32:35.351Z,98498.00
2023-03-22T03:35:22.517Z,98493.66
2023-03-22T03:38:15.144Z,98500.72
2023-03-22T03:40:57.847Z,98494.47
2023-03-22T03:43:28.228Z,98489.03
2023-03-22T03:45:56.105Z,98485.25
2023-03-22T03:48:28.049Z,98489.34
2023-03-22T03:50:57.876Z,98487.72
2023-03-22T03:53:24.905Z,98483.06
2023-03-22T03:55:51.705Z,98490.38
2023-03-22T03:58:18.441Z,98497.94
2023-03-22T04:00:46.700Z,98490.06
2023-03-22T04:03:14.131Z,98498.69
2023-03-22T04:05:41.442Z,98502.47
2023-03-22T04:08:08.842Z,98501.66
2023-03-22T04:10:35.636Z,98497.88
2023-03-22T04:13:02.501Z,98501.41
2023-03-22T04:15:29.431Z,98503.28
2023-03-22T04:17:56.269Z,98514.44
2023-03-22T04:20:23.801Z,98512.25
2023-03-22T04:22:50.612Z,98511.75
2023-03-22T04:25:18.807Z,98507.13
2023-03-22T04:27:51.051Z,98506.87
2023-03-22T04:30:22.426Z,98506.63
2023-03-22T04:32:50.270Z,98501.78
2023-03-22T04:35:17.420Z,98502.84
2023-03-22T04:37:45.749Z,98503.91
2023-03-22T04:40:17.348Z,98499.31
2023-03-22T04:42:44.854Z,98500.13
2023-03-22T04:45:12.486Z,98498.00
2023-03-22T04:47:39.502Z,98491.75
2023-03-22T04:50:08.098Z,98501.53
2023-03-22T04:52:34.872Z,98498.50
2023-03-22T04:55:01.656Z,98495.53
2023-03-22T04:57:28.403Z,98494.47
2023-03-22T04:59:55.207Z,98494.47
2023-03-22T05:02:21.988Z,98496.94
2023-03-22T05:04:48.773Z,98491.50
2023-03-22T05:07:15.843Z,98491.25
2023-03-22T05:09:42.596Z,98497.50
2023-03-22T05:12:09.415Z,98493.72
2023-03-22T05:14:36.509Z,98498.87
2023-03-22T05:17:03.854Z,98497.25
2023-03-22T05:19:30.753Z,98505.97
2023-03-22T05:21:58.676Z,98502.78
2023-03-22T05:24:25.676Z,98506.53
2023-03-22T05:26:54.072Z,98501.13
2023-03-22T05:29:24.425Z,98493.84
2023-03-22T05:31:51.248Z,98509.50
2023-03-22T05:34:18.035Z,98503.25
2023-03-22T05:36:44.913Z,98517.16
2023-03-22T05:39:12.075Z,98521.53
2023-03-22T05:41:38.887Z,98517.72
2023-03-22T05:44:05.673Z,98519.62
2023-03-22T05:46:32.529Z,98523.72
2023-03-22T05:48:59.304Z,98519.44
2023-03-22T05:51:26.203Z,98528.66
2023-03-22T05:53:53.657Z,98527.31
2023-03-22T05:56:25.867Z,98528.19
2023-03-22T05:58:52.692Z,98539.13
2023-03-22T06:01:21.491Z,98530.81
2023-03-22T06:03:48.868Z,98531.94
2023-03-22T06:06:15.896Z,98531.19
2023-03-22T06:08:43.338Z,98535.03
2023-03-22T06:11:10.669Z,98540.19
2023-03-22T06:13:37.984Z,98533.69
2023-03-22T06:16:05.702Z,98539.47
2023-03-22T06:18:33.305Z,98540.03
2023-03-22T06:21:00.782Z,98534.66
2023-03-22T06:23:28.303Z,98547.16
2023-03-22T06:25:55.122Z,98539.56
2023-03-22T06:28:21.911Z,98539.56
2023-03-22T06:30:48.692Z,98538.50
2023-03-22T06:33:15.499Z,98534.72
2023-03-22T06:35:42.362Z,98535.28
2023-03-22T06:38:09.431Z,98537.75
2023-03-22T06:40:36.212Z,98544.53
2023-03-22T06:43:06.990Z,98536.97
2023-03-22T06:45:34.209Z,98547.34
2023-03-22T06:48:01.499Z,98551.19
2023-03-22T06:50:29.153Z,98551.50
2023-03-22T06:52:56.451Z,98552.87
2023-03-22T06:55:23.553Z,98556.47
2023-03-22T06:57:50.380Z,98561.72
2023-03-22T07:00:17.540Z,98561.75
2023-03-22T07:02:44.331Z,98562.38
2023-03-22T07:05:11.113Z,98562.69
2023-03-22T07:07:37.945Z,98558.38
2023-03-22T07:10:05.143Z,98564.69
2023-03-22T07:12:32.014Z,98566.63
2023-03-22T07:15:01.301Z,98572.94
2023-03-22T07:17:28.066Z,98572.47
2023-03-22T07:19:54.840Z,98570.66
2023-03-22T07:22:22.425Z,98567.47
2023-03-22T07:24:56.985Z,98569.50
2023-03-22T07:27:24.802Z,98568.19
2023-03-22T07:29:51.776Z,98565.25
2023-03-22T07:32:18.653Z,98566.91
2023-03-22T07:34:45.567Z,98564.25
2023-03-22T07:37:12.363Z,98572.75
2023-03-22T07:39:39.188Z,98558.63
2023-03-22T07:42:06.931Z,98559.50
2023-03-22T07:44:33.807Z,98568.50
2023-03-22T07:47:00.805Z,98563.66
2023-03-22T07:49:27.722Z,98561.50
2023-03-22T07:51:54.492Z,98570.28
2023-03-22T07:54:32.929Z,98565.41
2023-03-22T07:57:01.157Z,98574.13
2023-03-22T07:59:28.267Z,98571.75
2023-03-22T08:01:55.136Z,98570.13
2023-03-22T08:04:22.598Z,98569.06
2023-03-22T08:06:50.045Z,98565.31
2023-03-22T08:09:17.871Z,98558.81
2023-03-22T08:11:44.649Z,98559.94
2023-03-22T08:14:11.745Z,98562.94
2023-03-22T08:16:38.698Z,98559.69
2023-03-22T08:19:06.132Z,98563.81
2023-03-22T08:21:32.938Z,98565.44
2023-03-22T08:23:59.763Z,98559.47
2023-03-22T08:26:27.384Z,98561.66
2023-03-22T08:28:54.229Z,98554.00
2023-03-22T08:31:21.152Z,98559.72
2023-03-22T08:33:48.177Z,98549.66
2023-03-22T08:36:18.353Z,98553.47
2023-03-22T08:38:47.974Z,98543.09
2023-03-22T08:41:17.882Z,98549.91
2023-03-22T08:43:44.634Z,98545.78
2023-03-22T08:46:11.445Z,98538.41
2023-03-22T08:48:38.537Z,98542.75
2023-03-22T08:51:06.771Z,98540.81
2023-03-22T08:53:33.740Z,98540.34
2023-03-22T08:56:02.294Z,98540.31
2023-03-22T08:58:29.109Z,98540.81
2023-03-22T09:00:56.087Z,98545.16
2023-03-22T09:03:25.008Z,98538.34
2023-03-22T09:05:52.152Z,98542.41
2023-03-22T09:08:20.032Z,98537.16
2023-03-22T09:10:51.448Z,98544.50
2023-03-22T09:13:18.720Z,98535.16
2023-03-22T09:15:45.798Z,98538.41
2023-03-22T09:18:12.891Z,98534.81
2023-03-22T09:20:40.181Z,98538.84
2023-03-22T09:23:07.468Z,98537.16
2023-03-22T09:25:34.443Z,98531.91
2023-03-22T09:28:02.463Z,98529.91
2023-03-22T09:30:29.318Z,98528.50
2023-03-22T09:32:56.579Z,98520.03
2023-03-22T09:35:23.410Z,98526.06
2023-03-22T09:37:53.400Z,98529.75
2023-03-22T09:40:25.263Z,98526.66
2023-03-22T09:42:55.735Z,98527.44
2023-03-22T09:45:32.999Z,98522.44
2023-03-22T09:48:00.561Z,98533.31
2023-03-22T09:50:32.491Z,98523.63
2023-03-22T09:53:00.389Z,98518.62
2023-03-22T09:55:58.116Z,98515.50
2023-03-22T09:58:34.233Z,98519.22
2023-03-22T10:01:09.725Z,98508.47
2023-03-22T10:04:02.799Z,98510.31
2023-03-22T10:06:30.813Z,98508.03
2023-03-22T10:08:57.509Z,98502.72
2023-03-22T10:11:55.103Z,98507.84
2023-03-22T10:14:46.240Z,98512.94
2023-03-22T10:17:17.451Z,98505.69
2023-03-22T10:19:54.157Z,98506.87
2023-03-22T10:22:26.227Z,98505.16
2023-03-22T10:24:54.798Z,98508.59
2023-03-22T10:27:23.307Z,98503.22
2023-03-22T10:30:16.498Z,98501.38
2023-03-22T10:32:57.555Z,98496.62
2023-03-22T10:35:25.109Z,98505.47
2023-03-22T10:37:54.867Z,98493.31
2023-03-22T10:40:27.149Z,98495.16
2023-03-22T10:43:04.153Z,98487.84
2023-03-22T10:45:34.650Z,98490.19
2023-03-22T10:48:07.516Z,98495.91
2023-03-22T10:50:38.217Z,98490.31
2023-03-22T10:53:14.257Z,98494.69
2023-03-22T10:55:43.277Z,98495.12
2023-03-22T10:58:20.990Z,98490.34
2023-03-22T11:00:50.896Z,98495.41
2023-03-22T11:03:41.229Z,98490.75
2023-03-22T11:06:15.567Z,98496.47
2023-03-22T11:09:11.890Z,98492.91
2023-03-22T11:12:12.153Z,98496.97
2023-03-22T11:14:47.830Z,98494.22
2023-03-22T11:17:25.912Z,98495.59
2023-03-22T11:19:59.595Z,98492.34
2023-03-22T11:22:31.603Z,98489.53
2023-03-22T11:24:59.275Z,98489.47
2023-03-22T11:27:33.041Z,98484.16
2023-03-22T11:30:20.295Z,98477.34
2023-03-22T11:32:47.373Z,98476.41
2023-03-22T11:35:26.975Z,98473.16
2023-03-22T11:37:56.045Z,98471.22
2023-03-22T11:40:28.768Z,98453.41
2023-03-22T11:43:08.892Z,98458.41
2023-03-22T11:45:37.849Z,98458.50
2023-03-22T11:48:15.167Z,98451.63
2023-03-22T11:50:44.844Z,98448.56
2023-03-22T11:53:15.674Z,98455.25
2023-03-22T11:55:43.753Z,98447.56
2023-03-22T11:58:25.002Z,98451.56
2023-03-22T12:00:55.336Z,98449.31
2023-03-22T12:03:27.477Z,98440.06
2023-03-22T12:05:55.070Z,98438.44
2023-03-22T12:08:31.105Z,98434.31
2023-03-22T12:11:05.066Z,98437.44
2023-03-22T12:13:49.959Z,98436.13
2023-03-22T12:16:24.876Z,98435.31
2023-03-22T12:19:06.699Z,98434.19
2023-03-22T12:21:34.839Z,98432.56
2023-03-22T12:24:06.395Z,98429.31
2023-03-22T12:26:35.233Z,98423.25
2023-03-22T12:29:18.336Z,98417.94
2023-03-22T12:31:58.766Z,98415.50
2023-03-22T12:34:38.881Z,98417.81
2023-03-22T12:37:08.586Z,98407.28
2023-03-22T12:39:41.973Z,98411.72
2023-03-22T12:42:28.219Z,98410.44
2023-03-22T12:45:12.949Z,98413.91
2023-03-22T12:47:43.253Z,98404.56
2023-03-22T12:50:18.072Z,98404.59
2023-03-22T12:52:51.239Z,98401.25
2023-03-22T12:55:39.650Z,98397.56
2023-03-22T12:58:08.576Z,98393.09
2023-03-22T13:00:48.675Z,98396.66
2023-03-22T13:03:15.530Z,98383.47
2023-03-22T13:05:44.323Z,98383.81
2023-03-22T13:08:11.580Z,98384.19
2023-03-22T13:10:42.512Z,98382.75
2023-03-22T13:13:21.606Z,98383.78
2023-03-22T13:16:09.775Z,98380.19
2023-03-22T13:18:37.715Z,98378.78
2023-03-22T13:21:14.292Z,98378.09
2023-03-22T13:24:02.683Z,98370.63
2023-03-22T13:26:46.187Z,98361.87
2023-03-22T13:29:38.144Z,98362.97
2023-03-22T13:32:21.056Z,98362.41
2023-03-22T13:34:52.228Z,98360.78
2023-03-22T13:37:35.280Z,98360.28
2023-03-22T13:40:22.212Z,98365.44
2023-03-22T13:42:51.205Z,98360.47
2023-03-22T13:45:33.585Z,98365.47
2023-03-22T13:48:12.840Z,98365.31
2023-03-22T13:50:40.287Z,98354.31
2023-03-22T13:53:23.951Z,98347.84
2023-03-22T13:55:51.918Z,98350.78
2023-03-22T13:58:36.198Z,98355.31
2023-03-22T14:01:36.642Z,98349.47
2023-03-22T14:04:12.441Z,98340.88
2023-03-22T14:07:06.230Z,98338.75
2023-03-22T14:09:38.843Z,98332.75
2023-03-22T14:12:14.141Z,98336.81
2023-03-22T14:14:44.382Z,98334.06
2023-03-22T14:17:30.019Z,98327.41
2023-03-22T14:19:58.657Z,98331.31
